sensor_id;sensor_type;location;lat;lon;timestamp;pressure;altitude;pressure_sealevel;temperature;humidity
2711;BME280;20721;47.402;8.550;2023-11-18T00:00:36;96987;;;8.38;60.91
2711;BME280;20721;47.402;8.550;2023-11-18T00:02:36;96987;;;8.37;61.09
2711;BME280;20721;47.402;8.550;2023-11-18T00:04:36;96988;;;8.35;61.02
2711;BME280;20721;47.402;8.550;2023-11-18T00:06:36;96989;;;8.41;61.21
2711;BME280;20721;47.402;8.550;2023-11-18T00:08:36;96993;;;8.41;61.03
2711;BME280;20721;47.402;8.550;2023-11-18T00:10:36;96993;;;8.35;61.03
2711;BME280;20721;47.402;8.550;2023-11-18T00:12:37;96991;;;8.23;61.23
2711;BME280;20721;47.402;8.550;2023-11-18T00:14:36;96990;;;8.18;61.67
2711;BME280;20721;47.402;8.550;2023-11-18T00:16:37;96991;;;8.24;61.55
2711;BME280;20721;47.402;8.550;2023-11-18T00:18:36;96989;;;8.29;61.34
2711;BME280;20721;47.402;8.550;2023-11-18T00:20:36;96990;;;8.30;61.68
2711;BME280;20721;47.402;8.550;2023-11-18T00:22:36;96986;;;8.17;61.72
2711;BME280;20721;47.402;8.550;2023-11-18T00:24:36;96983;;;8.08;62.01
2711;BME280;20721;47.402;8.550;2023-11-18T00:26:36;96981;;;8.09;62.27
2711;BME280;20721;47.402;8.550;2023-11-18T00:28:36;96981;;;8.18;62.33
2711;BME280;20721;47.402;8.550;2023-11-18T00:30:36;96980;;;8.30;61.99
2711;BME280;20721;47.402;8.550;2023-11-18T00:32:37;96978;;;8.30;61.71
2711;BME280;20721;47.402;8.550;2023-11-18T00:34:36;96979;;;8.17;62.09
2711;BME280;20721;47.402;8.550;2023-11-18T00:36:36;96978;;;7.86;62.90
2711;BME280;20721;47.402;8.550;2023-11-18T00:38:36;96989;;;7.76;63.22
2711;BME280;20721;47.402;8.550;2023-11-18T00:40:36;96985;;;7.64;63.28
2711;BME280;20721;47.402;8.550;2023-11-18T00:43:36;96989;;;7.61;63.74
2711;BME280;20721;47.402;8.550;2023-11-18T00:46:36;96991;;;7.62;63.08
2711;BME280;20721;47.402;8.550;2023-11-18T00:48:36;96994;;;7.40;63.70
2711;BME280;20721;47.402;8.550;2023-11-18T00:50:36;96993;;;7.48;63.46
2711;BME280;20721;47.402;8.550;2023-11-18T00:52:41;96996;;;7.43;63.72
2711;BME280;20721;47.402;8.550;2023-11-18T00:54:36;96996;;;7.53;63.81
2711;BME280;20721;47.402;8.550;2023-11-18T00:56:36;96998;;;7.57;63.60
2711;BME280;20721;47.402;8.550;2023-11-18T00:59:36;96997;;;7.57;63.66
2711;BME280;20721;47.402;8.550;2023-11-18T01:01:36;97001;;;7.79;63.70
2711;BME280;20721;47.402;8.550;2023-11-18T01:03:37;97002;;;7.99;63.18
2711;BME280;20721;47.402;8.550;2023-11-18T01:05:37;96999;;;8.19;62.39
2711;BME280;20721;47.402;8.550;2023-11-18T01:07:37;96997;;;8.36;62.11
2711;BME280;20721;47.402;8.550;2023-11-18T01:09:38;97005;;;8.45;62.07
2711;BME280;20721;47.402;8.550;2023-11-18T01:11:36;97004;;;8.52;61.67
2711;BME280;20721;47.402;8.550;2023-11-18T01:13:36;97004;;;8.56;61.76
2711;BME280;20721;47.402;8.550;2023-11-18T01:15:36;97003;;;8.57;61.24
2711;BME280;20721;47.402;8.550;2023-11-18T01:17:36;97010;;;8.55;61.10
2711;BME280;20721;47.402;8.550;2023-11-18T01:19:37;97005;;;8.50;60.96
2711;BME280;20721;47.402;8.550;2023-11-18T01:21:37;97009;;;8.52;60.89
2711;BME280;20721;47.402;8.550;2023-11-18T01:23:37;97006;;;8.52;61.03
2711;BME280;20721;47.402;8.550;2023-11-18T01:25:37;97010;;;8.52;61.02
2711;BME280;20721;47.402;8.550;2023-11-18T01:27:36;97005;;;8.53;60.93
2711;BME280;20721;47.402;8.550;2023-11-18T01:29:37;97006;;;8.47;61.04
2711;BME280;20721;47.402;8.550;2023-11-18T01:31:47;97004;;;8.41;61.36
2711;BME280;20721;47.402;8.550;2023-11-18T01:33:37;97009;;;8.24;60.92
2711;BME280;20721;47.402;8.550;2023-11-18T01:35:36;97005;;;8.07;61.57
2711;BME280;20721;47.402;8.550;2023-11-18T01:37:37;97006;;;7.97;62.08
2711;BME280;20721;47.402;8.550;2023-11-18T01:39:36;97005;;;8.02;62.04
2711;BME280;20721;47.402;8.550;2023-11-18T01:41:36;97006;;;7.91;62.15
2711;BME280;20721;47.402;8.550;2023-11-18T01:43:37;97012;;;7.72;62.79
2711;BME280;20721;47.402;8.550;2023-11-18T01:45:37;97014;;;7.70;63.10
2711;BME280;20721;47.402;8.550;2023-11-18T01:47:37;97007;;;7.84;62.53
2711;BME280;20721;47.402;8.550;2023-11-18T01:49:39;97011;;;7.97;62.52
2711;BME280;20721;47.402;8.550;2023-11-18T01:51:36;97014;;;8.02;62.18
2711;BME280;20721;47.402;8.550;2023-11-18T01:53:37;97014;;;7.90;62.23
2711;BME280;20721;47.402;8.550;2023-11-18T01:55:38;97019;;;7.72;62.44
2711;BME280;20721;47.402;8.550;2023-11-18T01:57:37;97024;;;7.55;62.98
2711;BME280;20721;47.402;8.550;2023-11-18T01:59:37;97022;;;7.50;63.17
2711;BME280;20721;47.402;8.550;2023-11-18T02:01:37;97008;;;7.66;62.74
2711;BME280;20721;47.402;8.550;2023-11-18T02:03:42;97011;;;7.76;62.23
2711;BME280;20721;47.402;8.550;2023-11-18T02:05:36;97016;;;7.66;62.32
2711;BME280;20721;47.402;8.550;2023-11-18T02:08:37;97016;;;7.60;62.83
2711;BME280;20721;47.402;8.550;2023-11-18T02:10:39;97012;;;7.73;62.61
2711;BME280;20721;47.402;8.550;2023-11-18T02:14:39;97008;;;7.70;62.30
2711;BME280;20721;47.402;8.550;2023-11-18T02:16:38;97006;;;7.65;62.25
2711;BME280;20721;47.402;8.550;2023-11-18T02:18:37;97003;;;7.69;61.99
2711;BME280;20721;47.402;8.550;2023-11-18T02:20:37;97003;;;7.74;62.17
2711;BME280;20721;47.402;8.550;2023-11-18T02:22:37;97000;;;7.79;62.11
2711;BME280;20721;47.402;8.550;2023-11-18T02:25:42;96993;;;7.80;61.87
2711;BME280;20721;47.402;8.550;2023-11-18T02:27:37;96987;;;7.75;61.85
2711;BME280;20721;47.402;8.550;2023-11-18T02:29:39;96985;;;7.73;61.74
2711;BME280;20721;47.402;8.550;2023-11-18T02:31:37;96981;;;7.70;61.67
2711;BME280;20721;47.402;8.550;2023-11-18T02:33:41;96979;;;7.66;61.60
2711;BME280;20721;47.402;8.550;2023-11-18T02:35:40;96978;;;7.52;61.90
2711;BME280;20721;47.402;8.550;2023-11-18T02:37:38;96979;;;7.42;62.24
2711;BME280;20721;47.402;8.550;2023-11-18T02:39:39;96979;;;7.36;62.04
2711;BME280;20721;47.402;8.550;2023-11-18T02:41:37;96976;;;7.42;62.66
2711;BME280;20721;47.402;8.550;2023-11-18T02:43:37;96975;;;7.50;62.34
2711;BME280;20721;47.402;8.550;2023-11-18T02:45:37;96980;;;7.53;61.86
2711;BME280;20721;47.402;8.550;2023-11-18T02:48:37;96984;;;7.55;62.59
2711;BME280;20721;47.402;8.550;2023-11-18T02:51:39;96987;;;7.55;62.16
2711;BME280;20721;47.402;8.550;2023-11-18T02:53:37;96989;;;7.51;62.39
2711;BME280;20721;47.402;8.550;2023-11-18T02:55:37;96996;;;7.48;62.43
2711;BME280;20721;47.402;8.550;2023-11-18T02:58:37;96988;;;7.48;62.31
2711;BME280;20721;47.402;8.550;2023-11-18T03:00:38;96989;;;7.46;62.85
2711;BME280;20721;47.402;8.550;2023-11-18T03:02:39;96983;;;7.38;62.51
2711;BME280;20721;47.402;8.550;2023-11-18T03:04:37;96972;;;7.25;62.59
2711;BME280;20721;47.402;8.550;2023-11-18T03:06:37;96970;;;7.19;62.76
2711;BME280;20721;47.402;8.550;2023-11-18T03:08:37;96973;;;6.97;62.94
2711;BME280;20721;47.402;8.550;2023-11-18T03:10:37;96973;;;6.89;63.42
2711;BME280;20721;47.402;8.550;2023-11-18T03:12:38;96971;;;6.76;63.64
2711;BME280;20721;47.402;8.550;2023-11-18T03:14:37;96974;;;6.69;64.14
2711;BME280;20721;47.402;8.550;2023-11-18T03:16:37;96983;;;6.77;63.90
2711;BME280;20721;47.402;8.550;2023-11-18T03:18:39;96984;;;6.81;63.78
2711;BME280;20721;47.402;8.550;2023-11-18T03:20:37;96985;;;6.82;63.39
2711;BME280;20721;47.402;8.550;2023-11-18T03:23:37;96991;;;6.84;63.37
2711;BME280;20721;47.402;8.550;2023-11-18T03:25:37;96991;;;6.87;63.28
2711;BME280;20721;47.402;8.550;2023-11-18T03:27:37;96988;;;6.92;63.31
2711;BME280;20721;47.402;8.550;2023-11-18T03:32:37;96988;;;6.94;63.23
2711;BME280;20721;47.402;8.550;2023-11-18T03:34:37;96983;;;6.94;63.56
2711;BME280;20721;47.402;8.550;2023-11-18T03:36:37;96977;;;6.98;63.65
2711;BME280;20721;47.402;8.550;2023-11-18T03:38:37;96973;;;6.95;63.34
2711;BME280;20721;47.402;8.550;2023-11-18T03:40:37;96966;;;6.90;63.33
2711;BME280;20721;47.402;8.550;2023-11-18T03:42:37;96963;;;6.90;63.03
2711;BME280;20721;47.402;8.550;2023-11-18T03:44:37;96962;;;6.80;63.25
2711;BME280;20721;47.402;8.550;2023-11-18T03:46:37;96967;;;6.80;63.46
2711;BME280;20721;47.402;8.550;2023-11-18T03:48:37;96970;;;6.83;63.25
2711;BME280;20721;47.402;8.550;2023-11-18T03:50:37;96975;;;6.86;63.02
2711;BME280;20721;47.402;8.550;2023-11-18T03:52:37;96977;;;6.87;63.21
2711;BME280;20721;47.402;8.550;2023-11-18T03:56:37;96981;;;6.87;63.34
2711;BME280;20721;47.402;8.550;2023-11-18T03:59:38;96984;;;6.85;63.37
2711;BME280;20721;47.402;8.550;2023-11-18T04:01:37;96989;;;6.82;63.45
2711;BME280;20721;47.402;8.550;2023-11-18T04:05:38;96985;;;6.82;63.50
2711;BME280;20721;47.402;8.550;2023-11-18T04:08:37;96985;;;6.81;63.05
2711;BME280;20721;47.402;8.550;2023-11-18T04:10:37;96984;;;6.75;63.11
2711;BME280;20721;47.402;8.550;2023-11-18T04:12:38;96986;;;6.69;63.40
2711;BME280;20721;47.402;8.550;2023-11-18T04:14:37;96986;;;6.69;63.36
2711;BME280;20721;47.402;8.550;2023-11-18T04:16:37;96987;;;6.70;63.55
2711;BME280;20721;47.402;8.550;2023-11-18T04:18:37;96981;;;6.68;63.59
2711;BME280;20721;47.402;8.550;2023-11-18T04:20:37;96978;;;6.64;63.38
2711;BME280;20721;47.402;8.550;2023-11-18T04:22:39;96971;;;6.60;63.43
2711;BME280;20721;47.402;8.550;2023-11-18T04:24:37;96969;;;6.49;63.80
2711;BME280;20721;47.402;8.550;2023-11-18T04:26:37;96968;;;6.31;64.21
2711;BME280;20721;47.402;8.550;2023-11-18T04:28:37;96967;;;6.28;64.58
2711;BME280;20721;47.402;8.550;2023-11-18T04:30:38;96965;;;6.27;64.65
2711;BME280;20721;47.402;8.550;2023-11-18T04:32:37;96969;;;6.36;64.27
2711;BME280;20721;47.402;8.550;2023-11-18T04:34:37;96971;;;6.42;63.93
2711;BME280;20721;47.402;8.550;2023-11-18T04:36:37;96972;;;6.35;64.21
2711;BME280;20721;47.402;8.550;2023-11-18T04:38:37;96978;;;6.39;64.47
2711;BME280;20721;47.402;8.550;2023-11-18T04:40:38;96975;;;6.40;64.09
2711;BME280;20721;47.402;8.550;2023-11-18T04:42:37;96975;;;6.43;64.24
2711;BME280;20721;47.402;8.550;2023-11-18T04:44:38;96972;;;6.49;63.98
2711;BME280;20721;47.402;8.550;2023-11-18T04:46:37;96978;;;6.53;64.12
2711;BME280;20721;47.402;8.550;2023-11-18T04:48:42;96990;;;6.56;63.98
2711;BME280;20721;47.402;8.550;2023-11-18T04:51:37;96990;;;6.56;63.64
2711;BME280;20721;47.402;8.550;2023-11-18T04:54:37;96993;;;6.53;63.76
2711;BME280;20721;47.402;8.550;2023-11-18T04:56:37;96998;;;6.49;63.85
2711;BME280;20721;47.402;8.550;2023-11-18T04:58:38;96997;;;6.46;63.81
2711;BME280;20721;47.402;8.550;2023-11-18T05:00:38;96993;;;6.47;63.92
2711;BME280;20721;47.402;8.550;2023-11-18T05:02:38;96993;;;6.43;63.42
2711;BME280;20721;47.402;8.550;2023-11-18T05:04:37;96991;;;6.28;63.91
2711;BME280;20721;47.402;8.550;2023-11-18T05:06:37;96989;;;6.13;64.34
2711;BME280;20721;47.402;8.550;2023-11-18T05:08:37;96983;;;6.16;64.35
2711;BME280;20721;47.402;8.550;2023-11-18T05:10:38;96984;;;6.17;64.40
2711;BME280;20721;47.402;8.550;2023-11-18T05:12:37;96982;;;6.21;64.40
2711;BME280;20721;47.402;8.550;2023-11-18T05:14:38;96977;;;6.26;64.49
2711;BME280;20721;47.402;8.550;2023-11-18T05:16:37;96977;;;6.30;64.48
2711;BME280;20721;47.402;8.550;2023-11-18T05:18:38;96977;;;6.36;64.38
2711;BME280;20721;47.402;8.550;2023-11-18T05:20:37;96969;;;6.38;64.24
2711;BME280;20721;47.402;8.550;2023-11-18T05:22:37;96966;;;6.32;64.35
2711;BME280;20721;47.402;8.550;2023-11-18T05:24:37;96965;;;6.31;64.45
2711;BME280;20721;47.402;8.550;2023-11-18T05:27:37;96962;;;6.34;64.21
2711;BME280;20721;47.402;8.550;2023-11-18T05:29:37;96961;;;6.35;64.30
2711;BME280;20721;47.402;8.550;2023-11-18T05:32:37;96955;;;6.36;64.30
2711;BME280;20721;47.402;8.550;2023-11-18T05:34:37;96953;;;6.35;64.36
2711;BME280;20721;47.402;8.550;2023-11-18T05:36:37;96965;;;6.36;64.45
2711;BME280;20721;47.402;8.550;2023-11-18T05:39:42;96966;;;6.37;64.10
2711;BME280;20721;47.402;8.550;2023-11-18T05:44:39;96954;;;6.36;63.96
2711;BME280;20721;47.402;8.550;2023-11-18T05:46:38;96947;;;6.33;64.02
2711;BME280;20721;47.402;8.550;2023-11-18T05:48:37;96956;;;6.26;64.22
2711;BME280;20721;47.402;8.550;2023-11-18T05:51:37;96961;;;6.22;64.62
2711;BME280;20721;47.402;8.550;2023-11-18T05:53:41;96960;;;6.20;64.52
2711;BME280;20721;47.402;8.550;2023-11-18T05:55:37;96966;;;6.23;64.72
2711;BME280;20721;47.402;8.550;2023-11-18T05:57:37;96973;;;6.23;64.53
2711;BME280;20721;47.402;8.550;2023-11-18T05:59:37;96974;;;6.25;64.43
2711;BME280;20721;47.402;8.550;2023-11-18T06:01:37;96968;;;6.24;64.38
2711;BME280;20721;47.402;8.550;2023-11-18T06:04:37;96969;;;6.25;64.50
2711;BME280;20721;47.402;8.550;2023-11-18T06:06:37;96965;;;6.23;64.36
2711;BME280;20721;47.402;8.550;2023-11-18T06:08:44;96958;;;6.20;64.46
2711;BME280;20721;47.402;8.550;2023-11-18T06:11:41;96953;;;6.16;64.28
2711;BME280;20721;47.402;8.550;2023-11-18T06:13:42;96958;;;6.15;64.09
2711;BME280;20721;47.402;8.550;2023-11-18T06:15:38;96958;;;6.15;64.41
2711;BME280;20721;47.402;8.550;2023-11-18T06:17:37;96961;;;6.14;64.34
2711;BME280;20721;47.402;8.550;2023-11-18T06:20:38;96964;;;6.15;63.79
2711;BME280;20721;47.402;8.550;2023-11-18T06:23:37;96956;;;6.14;64.11
2711;BME280;20721;47.402;8.550;2023-11-18T06:25:37;96955;;;6.13;64.02
2711;BME280;20721;47.402;8.550;2023-11-18T06:27:37;96958;;;6.17;63.97
2711;BME280;20721;47.402;8.550;2023-11-18T06:30:38;96964;;;6.20;64.00
2711;BME280;20721;47.402;8.550;2023-11-18T06:32:38;96965;;;6.23;63.86
2711;BME280;20721;47.402;8.550;2023-11-18T06:35:37;96970;;;6.25;63.85
2711;BME280;20721;47.402;8.550;2023-11-18T06:37:37;96966;;;6.25;63.93
2711;BME280;20721;47.402;8.550;2023-11-18T06:39:41;96957;;;6.25;63.71
2711;BME280;20721;47.402;8.550;2023-11-18T06:41:47;96959;;;6.21;63.69
2711;BME280;20721;47.402;8.550;2023-11-18T06:43:48;96957;;;6.16;63.74
2711;BME280;20721;47.402;8.550;2023-11-18T06:45:42;96959;;;6.17;63.59
2711;BME280;20721;47.402;8.550;2023-11-18T06:47:38;96961;;;6.19;63.68
2711;BME280;20721;47.402;8.550;2023-11-18T06:49:37;96971;;;6.23;63.86
2711;BME280;20721;47.402;8.550;2023-11-18T06:51:38;96973;;;6.26;64.02
2711;BME280;20721;47.402;8.550;2023-11-18T06:53:37;96975;;;6.29;63.71
2711;BME280;20721;47.402;8.550;2023-11-18T06:55:37;96977;;;6.30;63.48
2711;BME280;20721;47.402;8.550;2023-11-18T06:58:38;96976;;;6.29;63.90
2711;BME280;20721;47.402;8.550;2023-11-18T07:00:38;96970;;;6.32;64.00
2711;BME280;20721;47.402;8.550;2023-11-18T07:02:38;96970;;;6.35;63.97
2711;BME280;20721;47.402;8.550;2023-11-18T07:04:38;96967;;;6.40;63.96
2711;BME280;20721;47.402;8.550;2023-11-18T07:06:38;96971;;;6.45;63.81
2711;BME280;20721;47.402;8.550;2023-11-18T07:08:39;96971;;;6.52;63.73
2711;BME280;20721;47.402;8.550;2023-11-18T07:10:38;96970;;;6.58;63.62
2711;BME280;20721;47.402;8.550;2023-11-18T07:12:38;96966;;;6.64;63.16
2711;BME280;20721;47.402;8.550;2023-11-18T07:14:37;96967;;;6.69;63.15
2711;BME280;20721;47.402;8.550;2023-11-18T07:16:38;96974;;;6.73;63.10
2711;BME280;20721;47.402;8.550;2023-11-18T07:18:38;96977;;;6.80;63.04
2711;BME280;20721;47.402;8.550;2023-11-18T07:20:37;96979;;;6.87;63.02
2711;BME280;20721;47.402;8.550;2023-11-18T07:22:37;96986;;;6.93;62.66
2711;BME280;20721;47.402;8.550;2023-11-18T07:24:37;96989;;;7.01;62.38
2711;BME280;20721;47.402;8.550;2023-11-18T07:26:37;96992;;;7.05;62.11
2711;BME280;20721;47.402;8.550;2023-11-18T07:28:37;96996;;;7.11;61.98
2711;BME280;20721;47.402;8.550;2023-11-18T07:30:37;97000;;;7.17;62.05
2711;BME280;20721;47.402;8.550;2023-11-18T07:32:40;97002;;;7.20;61.63
2711;BME280;20721;47.402;8.550;2023-11-18T07:34:38;97006;;;7.25;61.60
2711;BME280;20721;47.402;8.550;2023-11-18T07:36:37;97007;;;7.31;61.66
2711;BME280;20721;47.402;8.550;2023-11-18T07:38:37;97005;;;7.42;61.41
2711;BME280;20721;47.402;8.550;2023-11-18T07:40:42;97002;;;7.54;61.15
2711;BME280;20721;47.402;8.550;2023-11-18T07:42:38;97002;;;7.62;60.63
2711;BME280;20721;47.402;8.550;2023-11-18T07:44:38;97002;;;7.73;60.54
2711;BME280;20721;47.402;8.550;2023-11-18T07:46:38;97008;;;7.81;60.21
2711;BME280;20721;47.402;8.550;2023-11-18T07:48:37;97007;;;7.91;60.12
2711;BME280;20721;47.402;8.550;2023-11-18T07:50:39;97004;;;8.05;59.90
2711;BME280;20721;47.402;8.550;2023-11-18T07:52:38;97006;;;8.39;58.88
2711;BME280;20721;47.402;8.550;2023-11-18T07:54:38;97003;;;8.84;57.85
2711;BME280;20721;47.402;8.550;2023-11-18T07:56:37;97001;;;9.91;55.49
2711;BME280;20721;47.402;8.550;2023-11-18T07:58:38;96999;;;11.02;52.37
2711;BME280;20721;47.402;8.550;2023-11-18T08:00:39;96995;;;11.72;50.34
2711;BME280;20721;47.402;8.550;2023-11-18T08:02:38;96981;;;12.42;49.02
2711;BME280;20721;47.402;8.550;2023-11-18T08:04:38;96983;;;13.09;47.49
2711;BME280;20721;47.402;8.550;2023-11-18T08:06:37;96990;;;13.93;46.10
2711;BME280;20721;47.402;8.550;2023-11-18T08:08:38;96992;;;14.90;44.13
2711;BME280;20721;47.402;8.550;2023-11-18T08:10:38;96989;;;15.60;42.66
2711;BME280;20721;47.402;8.550;2023-11-18T08:12:38;96980;;;14.79;43.39
2711;BME280;20721;47.402;8.550;2023-11-18T08:14:37;96979;;;13.86;45.38
2711;BME280;20721;47.402;8.550;2023-11-18T08:16:38;96984;;;13.01;46.71
2711;BME280;20721;47.402;8.550;2023-11-18T08:18:39;96984;;;12.40;47.94
2711;BME280;20721;47.402;8.550;2023-11-18T08:20:37;96983;;;11.99;49.03
2711;BME280;20721;47.402;8.550;2023-11-18T08:22:38;96990;;;11.54;50.45
2711;BME280;20721;47.402;8.550;2023-11-18T08:24:38;96992;;;11.16;51.58
2711;BME280;20721;47.402;8.550;2023-11-18T08:26:37;97002;;;10.84;52.23
2711;BME280;20721;47.402;8.550;2023-11-18T08:28:37;97008;;;10.57;53.38
2711;BME280;20721;47.402;8.550;2023-11-18T08:30:37;97010;;;10.33;53.93
2711;BME280;20721;47.402;8.550;2023-11-18T08:32:39;97015;;;10.12;54.90
2711;BME280;20721;47.402;8.550;2023-11-18T08:34:37;97011;;;10.03;55.56
2711;BME280;20721;47.402;8.550;2023-11-18T08:37:37;97002;;;10.06;55.20
2711;BME280;20721;47.402;8.550;2023-11-18T08:39:37;96992;;;10.23;54.66
2711;BME280;20721;47.402;8.550;2023-11-18T08:41:38;96987;;;10.33;54.85
2711;BME280;20721;47.402;8.550;2023-11-18T08:43:40;96988;;;10.41;54.57
2711;BME280;20721;47.402;8.550;2023-11-18T08:45:38;96979;;;10.42;54.48
2711;BME280;20721;47.402;8.550;2023-11-18T08:47:38;96976;;;10.40;54.77
2711;BME280;20721;47.402;8.550;2023-11-18T08:49:40;96972;;;10.47;54.50
2711;BME280;20721;47.402;8.550;2023-11-18T08:51:38;96967;;;10.69;53.82
2711;BME280;20721;47.402;8.550;2023-11-18T08:53:40;96975;;;11.19;52.98
2711;BME280;20721;47.402;8.550;2023-11-18T08:55:39;96971;;;12.05;50.67
2711;BME280;20721;47.402;8.550;2023-11-18T08:57:48;96970;;;12.93;48.77
2711;BME280;20721;47.402;8.550;2023-11-18T08:59:38;96969;;;13.23;47.61
2711;BME280;20721;47.402;8.550;2023-11-18T09:01:41;96972;;;13.08;47.89
2711;BME280;20721;47.402;8.550;2023-11-18T09:03:43;96968;;;13.29;47.83
2711;BME280;20721;47.402;8.550;2023-11-18T09:05:38;96967;;;14.50;45.66
2711;BME280;20721;47.402;8.550;2023-11-18T09:07:38;96961;;;14.44;45.08
2711;BME280;20721;47.402;8.550;2023-11-18T09:09:39;96956;;;13.79;45.88
2711;BME280;20721;47.402;8.550;2023-11-18T09:11:41;96956;;;13.21;47.53
2711;BME280;20721;47.402;8.550;2023-11-18T09:13:39;96954;;;12.66;48.81
2711;BME280;20721;47.402;8.550;2023-11-18T09:15:38;96944;;;12.20;49.79
2711;BME280;20721;47.402;8.550;2023-11-18T09:17:38;96946;;;11.73;50.81
2711;BME280;20721;47.402;8.550;2023-11-18T09:19:38;96946;;;11.50;51.41
2711;BME280;20721;47.402;8.550;2023-11-18T09:21:38;96947;;;11.51;52.02
2711;BME280;20721;47.402;8.550;2023-11-18T09:23:38;96948;;;11.41;52.05
2711;BME280;20721;47.402;8.550;2023-11-18T09:25:39;96953;;;11.24;52.45
2711;BME280;20721;47.402;8.550;2023-11-18T09:27:39;96953;;;11.32;53.09
2711;BME280;20721;47.402;8.550;2023-11-18T09:29:38;96947;;;11.40;52.88
2711;BME280;20721;47.402;8.550;2023-11-18T09:31:39;96945;;;11.41;52.82
2711;BME280;20721;47.402;8.550;2023-11-18T09:33:40;96945;;;11.30;52.92
2711;BME280;20721;47.402;8.550;2023-11-18T09:35:39;96938;;;11.15;53.06
2711;BME280;20721;47.402;8.550;2023-11-18T09:37:38;96933;;;11.06;53.56
2711;BME280;20721;47.402;8.550;2023-11-18T09:39:38;96932;;;10.97;53.61
2711;BME280;20721;47.402;8.550;2023-11-18T09:41:38;96933;;;10.90;53.86
2711;BME280;20721;47.402;8.550;2023-11-18T09:43:45;96938;;;10.80;53.83
2711;BME280;20721;47.402;8.550;2023-11-18T09:45:39;96944;;;10.74;54.38
2711;BME280;20721;47.402;8.550;2023-11-18T09:47:42;96950;;;10.64;54.88
2711;BME280;20721;47.402;8.550;2023-11-18T09:49:40;96951;;;10.75;55.25
2711;BME280;20721;47.402;8.550;2023-11-18T09:51:38;96950;;;10.85;54.65
2711;BME280;20721;47.402;8.550;2023-11-18T09:53:40;96951;;;10.87;54.30
2711;BME280;20721;47.402;8.550;2023-11-18T09:55:45;96955;;;10.82;54.72
2711;BME280;20721;47.402;8.550;2023-11-18T09:57:40;96955;;;10.69;54.69
2711;BME280;20721;47.402;8.550;2023-11-18T09:59:49;96951;;;10.69;54.30
2711;BME280;20721;47.402;8.550;2023-11-18T10:01:38;96954;;;10.64;54.00
2711;BME280;20721;47.402;8.550;2023-11-18T10:03:41;96951;;;10.65;54.86
2711;BME280;20721;47.402;8.550;2023-11-18T10:05:40;96949;;;10.69;54.57
2711;BME280;20721;47.402;8.550;2023-11-18T10:07:39;96947;;;10.69;54.32
2711;BME280;20721;47.402;8.550;2023-11-18T10:09:39;96952;;;10.58;54.09
2711;BME280;20721;47.402;8.550;2023-11-18T10:11:38;96952;;;10.58;54.51
2711;BME280;20721;47.402;8.550;2023-11-18T10:13:40;96955;;;10.60;55.33
2711;BME280;20721;47.402;8.550;2023-11-18T10:15:39;96955;;;10.66;55.49
2711;BME280;20721;47.402;8.550;2023-11-18T10:17:45;96947;;;10.71;55.33
2711;BME280;20721;47.402;8.550;2023-11-18T10:22:38;96945;;;10.74;55.24
2711;BME280;20721;47.402;8.550;2023-11-18T10:24:44;96948;;;10.77;55.07
2711;BME280;20721;47.402;8.550;2023-11-18T10:26:38;96945;;;10.66;54.57
2711;BME280;20721;47.402;8.550;2023-11-18T10:28:38;96948;;;10.55;55.12
2711;BME280;20721;47.402;8.550;2023-11-18T10:30:45;96949;;;10.51;55.22
2711;BME280;20721;47.402;8.550;2023-11-18T10:32:39;96953;;;10.52;55.50
2711;BME280;20721;47.402;8.550;2023-11-18T10:34:38;96949;;;10.62;55.23
2711;BME280;20721;47.402;8.550;2023-11-18T10:36:38;96945;;;10.70;55.31
2711;BME280;20721;47.402;8.550;2023-11-18T10:38:43;96940;;;10.79;55.26
2711;BME280;20721;47.402;8.550;2023-11-18T10:40:38;96942;;;10.90;54.66
2711;BME280;20721;47.402;8.550;2023-11-18T10:42:39;96942;;;10.97;54.31
2711;BME280;20721;47.402;8.550;2023-11-18T10:44:49;96935;;;11.01;54.86
2711;BME280;20721;47.402;8.550;2023-11-18T10:46:38;96940;;;11.04;54.51
2711;BME280;20721;47.402;8.550;2023-11-18T10:48:41;96940;;;11.03;54.38
2711;BME280;20721;47.402;8.550;2023-11-18T10:50:38;96941;;;11.05;53.93
2711;BME280;20721;47.402;8.550;2023-11-18T10:52:40;96945;;;11.01;54.34
2711;BME280;20721;47.402;8.550;2023-11-18T10:54:49;96949;;;11.05;54.53
2711;BME280;20721;47.402;8.550;2023-11-18T10:57:38;96952;;;11.07;54.88
2711;BME280;20721;47.402;8.550;2023-11-18T10:59:57;96943;;;11.10;54.99
2711;BME280;20721;47.402;8.550;2023-11-18T11:01:42;96939;;;11.11;54.67
2711;BME280;20721;47.402;8.550;2023-11-18T11:03:52;96944;;;11.14;54.57
2711;BME280;20721;47.402;8.550;2023-11-18T11:05:41;96954;;;11.15;54.86
2711;BME280;20721;47.402;8.550;2023-11-18T11:07:38;96958;;;11.20;54.85
2711;BME280;20721;47.402;8.550;2023-11-18T11:10:42;96959;;;11.24;54.03
2711;BME280;20721;47.402;8.550;2023-11-18T11:12:42;96957;;;11.22;53.77
2711;BME280;20721;47.402;8.550;2023-11-18T11:14:42;96957;;;11.21;54.06
2711;BME280;20721;47.402;8.550;2023-11-18T11:16:41;96958;;;11.21;54.81
2711;BME280;20721;47.402;8.550;2023-11-18T11:18:39;96953;;;11.21;54.48
2711;BME280;20721;47.402;8.550;2023-11-18T11:20:42;96952;;;11.26;54.40
2711;BME280;20721;47.402;8.550;2023-11-18T11:27:09;96950;;;11.27;54.33
2711;BME280;20721;47.402;8.550;2023-11-18T11:29:42;96951;;;11.31;54.57
2711;BME280;20721;47.402;8.550;2023-11-18T11:36:41;96958;;;11.28;54.15
2711;BME280;20721;47.402;8.550;2023-11-18T11:38:38;96953;;;11.25;54.97
2711;BME280;20721;47.402;8.550;2023-11-18T11:40:38;96952;;;11.23;55.13
2711;BME280;20721;47.402;8.550;2023-11-18T11:42:39;96952;;;11.21;55.16
2711;BME280;20721;47.402;8.550;2023-11-18T11:44:42;96946;;;11.19;55.04
2711;BME280;20721;47.402;8.550;2023-11-18T11:46:41;96942;;;11.14;54.65
2711;BME280;20721;47.402;8.550;2023-11-18T11:48:38;96937;;;10.99;54.75
2711;BME280;20721;47.402;8.550;2023-11-18T11:50:40;96930;;;10.93;54.68
2711;BME280;20721;47.402;8.550;2023-11-18T11:52:42;96928;;;10.90;55.03
2711;BME280;20721;47.402;8.550;2023-11-18T11:54:40;96928;;;10.88;54.97
2711;BME280;20721;47.402;8.550;2023-11-18T11:56:39;96924;;;10.89;55.04
2711;BME280;20721;47.402;8.550;2023-11-18T11:58:40;96921;;;10.88;54.72
2711;BME280;20721;47.402;8.550;2023-11-18T12:00:42;96917;;;10.81;55.06
2711;BME280;20721;47.402;8.550;2023-11-18T12:02:47;96911;;;10.79;55.17
2711;BME280;20721;47.402;8.550;2023-11-18T12:04:38;96911;;;10.87;55.13
2711;BME280;20721;47.402;8.550;2023-11-18T12:06:41;96914;;;10.98;53.81
2711;BME280;20721;47.402;8.550;2023-11-18T12:08:41;96916;;;10.74;51.35